createdAt,value
2018-09-29T00:02:16.767Z,64.60
2018-09-29T00:04:45.233Z,64.70
2018-09-29T00:07:13.783Z,64.70
2018-09-29T00:09:42.247Z,65.10
2018-09-29T00:12:10.758Z,65.60
2018-09-29T00:14:39.243Z,66.00
2018-09-29T00:17:07.727Z,65.50
2018-09-29T00:19:36.274Z,65.70
2018-09-29T00:22:04.791Z,64.80
2018-09-29T00:24:33.339Z,64.60
2018-09-29T00:27:01.847Z,63.80
2018-09-29T00:29:30.333Z,62.90
2018-09-29T00:31:58.883Z,62.40
2018-09-29T00:34:27.329Z,62.30
2018-09-29T00:36:55.940Z,61.20
2018-09-29T00:39:24.378Z,61.50
2018-09-29T00:41:52.978Z,62.10
2018-09-29T00:44:21.445Z,62.00
2018-09-29T00:46:49.949Z,61.30
2018-09-29T00:49:18.509Z,61.70
2018-09-29T00:51:47.000Z,62.10
2018-09-29T00:54:15.541Z,62.80
2018-09-29T00:56:44.053Z,61.70
2018-09-29T00:59:12.558Z,60.10
2018-09-29T01:01:41.057Z,60.60
2018-09-29T01:04:09.531Z,60.90
2018-09-29T01:06:38.107Z,59.50
2018-09-29T01:09:06.970Z,59.40
2018-09-29T01:11:35.618Z,59.40
2018-09-29T01:14:04.099Z,59.40
2018-09-29T01:16:32.610Z,59.30
2018-09-29T01:19:01.126Z,59.30
2018-09-29T01:21:29.622Z,59.20
2018-09-29T01:23:58.192Z,59.20
2018-09-29T01:26:26.711Z,59.10
2018-09-29T01:28:55.169Z,59.10
2018-09-29T01:31:23.683Z,59.10
2018-09-29T01:33:52.190Z,59.00
2018-09-29T01:36:20.664Z,59.70
2018-09-29T01:38:49.147Z,59.50
2018-09-29T01:41:17.635Z,59.80
2018-09-29T01:43:46.125Z,59.10
2018-09-29T01:46:14.607Z,58.80
2018-09-29T01:48:43.143Z,58.70
2018-09-29T01:51:11.647Z,58.60
2018-09-29T01:53:40.144Z,58.60
2018-09-29T01:56:08.616Z,58.70
2018-09-29T01:58:37.105Z,58.50
2018-09-29T02:01:05.571Z,58.50
2018-09-29T02:03:34.058Z,58.60
2018-09-29T02:06:02.546Z,58.50
2018-09-29T02:08:31.020Z,58.30
2018-09-29T02:10:59.478Z,58.30
2018-09-29T02:13:27.937Z,58.30
2018-09-29T02:15:56.396Z,58.30
2018-09-29T02:18:24.886Z,58.60
2018-09-29T02:20:53.368Z,58.70
2018-09-29T02:23:21.856Z,58.70
2018-09-29T02:25:50.322Z,58.70
2018-09-29T02:28:18.813Z,58.40
2018-09-29T02:30:47.274Z,58.10
2018-09-29T02:33:15.731Z,58.40
2018-09-29T02:35:44.190Z,58.40
2018-09-29T02:38:12.664Z,58.70
2018-09-29T02:40:41.189Z,59.30
2018-09-29T02:43:09.687Z,59.40
2018-09-29T02:45:38.168Z,60.00
2018-09-29T02:48:06.845Z,60.00
2018-09-29T02:50:35.323Z,60.10
2018-09-29T02:53:03.815Z,60.30
2018-09-29T02:55:32.304Z,60.40
2018-09-29T02:58:00.796Z,61.00
2018-09-29T03:00:29.279Z,61.30
2018-09-29T03:02:57.759Z,61.80
2018-09-29T03:05:26.283Z,63.10
2018-09-29T03:07:54.774Z,63.40
2018-09-29T03:10:23.213Z,63.20
2018-09-29T03:12:51.662Z,63.50
2018-09-29T03:15:20.150Z,63.60
2018-09-29T03:17:48.612Z,63.10
2018-09-29T03:20:17.128Z,63.60
2018-09-29T03:22:45.603Z,63.60
2018-09-29T03:25:14.084Z,63.30
2018-09-29T03:27:42.569Z,63.20
2018-09-29T03:30:11.057Z,63.70
2018-09-29T03:32:39.561Z,64.10
2018-09-29T03:35:08.052Z,65.20
2018-09-29T03:37:36.537Z,66.60
2018-09-29T03:40:05.061Z,66.50
2018-09-29T03:42:33.534Z,67.40
2018-09-29T03:45:02.008Z,68.70
2018-09-29T03:47:30.452Z,70.00
2018-09-29T03:49:58.931Z,71.10
2018-09-29T03:52:27.408Z,72.30
2018-09-29T03:54:55.909Z,73.20
2018-09-29T03:57:24.356Z,73.60
2018-09-29T03:59:52.868Z,74.40
2018-09-29T04:02:21.319Z,74.90
2018-09-29T04:04:49.799Z,75.30
2018-09-29T04:07:18.247Z,75.80
2018-09-29T04:09:46.727Z,76.00
2018-09-29T04:12:15.207Z,76.50
2018-09-29T04:14:43.657Z,77.10
2018-09-29T04:17:12.128Z,77.80
2018-09-29T04:19:40.602Z,77.90
2018-09-29T04:22:09.054Z,78.10
2018-09-29T04:24:37.561Z,78.70
2018-09-29T04:27:06.029Z,78.60
2018-09-29T04:29:34.507Z,79.10
2018-09-29T04:32:02.985Z,79.10
2018-09-29T04:34:31.509Z,79.60
2018-09-29T04:36:59.934Z,79.90
2018-09-29T04:39:28.388Z,80.50
2018-09-29T04:41:56.863Z,80.90
2018-09-29T04:44:25.351Z,81.00
2018-09-29T04:46:53.806Z,80.90
2018-09-29T04:49:22.273Z,80.90
2018-09-29T04:51:50.736Z,80.90
2018-09-29T04:54:19.204Z,81.40
2018-09-29T04:56:47.678Z,81.40
2018-09-29T04:59:16.128Z,81.20
2018-09-29T05:01:44.603Z,81.20
2018-09-29T05:04:13.059Z,80.80
2018-09-29T05:06:41.539Z,80.80
2018-09-29T05:09:10.554Z,80.80
2018-09-29T05:11:39.040Z,80.70
2018-09-29T05:14:07.619Z,80.10
2018-09-29T05:16:36.053Z,80.10
2018-09-29T05:19:04.509Z,80.10
2018-09-29T05:21:32.985Z,80.10
2018-09-29T05:24:01.495Z,80.30
2018-09-29T05:26:29.978Z,79.70
2018-09-29T05:28:58.542Z,79.20
2018-09-29T05:31:27.006Z,78.30
2018-09-29T05:33:55.489Z,77.40
2018-09-29T05:36:23.943Z,77.10
2018-09-29T05:38:52.414Z,76.60
2018-09-29T05:41:20.895Z,76.30
2018-09-29T05:43:49.320Z,75.90
2018-09-29T05:46:17.776Z,75.50
2018-09-29T05:48:46.255Z,75.60
2018-09-29T05:51:14.705Z,75.40
2018-09-29T05:53:43.146Z,75.20
2018-09-29T05:56:11.619Z,74.70
2018-09-29T05:58:40.031Z,74.60
2018-09-29T06:01:08.500Z,74.70
2018-09-29T06:03:36.931Z,74.60
2018-09-29T06:06:05.448Z,74.40
2018-09-29T06:08:33.896Z,73.70
2018-09-29T06:11:02.390Z,73.30
2018-09-29T06:13:30.845Z,72.60
2018-09-29T06:15:59.281Z,72.90
2018-09-29T06:18:27.790Z,71.90
2018-09-29T06:20:56.325Z,71.70
2018-09-29T06:23:24.760Z,71.40
2018-09-29T06:25:53.211Z,70.80
2018-09-29T06:28:21.695Z,71.00
2018-09-29T06:30:50.233Z,70.50
2018-09-29T06:33:18.692Z,70.80
2018-09-29T06:35:47.134Z,70.40
2018-09-29T06:38:15.604Z,70.40
2018-09-29T06:40:44.154Z,70.30
2018-09-29T06:43:12.643Z,70.50
2018-09-29T06:45:41.210Z,70.40
2018-09-29T06:48:09.715Z,70.40
2018-09-29T06:50:38.216Z,70.40
2018-09-29T06:53:06.708Z,70.00
2018-09-29T06:55:35.163Z,69.80
2018-09-29T06:58:03.648Z,69.70
2018-09-29T07:00:32.160Z,68.70
2018-09-29T07:03:00.674Z,68.20
2018-09-29T07:05:29.135Z,67.70
2018-09-29T07:07:57.621Z,67.20
2018-09-29T07:10:26.115Z,66.00
2018-09-29T07:12:54.662Z,66.10
2018-09-29T07:15:23.100Z,65.50
2018-09-29T07:17:51.604Z,64.90
2018-09-29T07:20:20.157Z,63.50
2018-09-29T07:22:48.665Z,63.20
2018-09-29T07:25:17.226Z,63.50
2018-09-29T07:27:45.694Z,62.80
2018-09-29T07:30:14.185Z,61.60
2018-09-29T07:32:42.710Z,61.10
2018-09-29T07:35:11.161Z,60.50
2018-09-29T07:37:39.706Z,59.60
2018-09-29T07:40:08.212Z,59.50
2018-09-29T07:42:36.682Z,57.70
2018-09-29T07:45:05.158Z,57.90
2018-09-29T07:47:33.671Z,55.60
2018-09-29T07:50:02.145Z,54.40
2018-09-29T07:52:30.675Z,55.00
2018-09-29T07:54:59.524Z,54.20
2018-09-29T07:57:27.974Z,53.90
2018-09-29T07:59:56.455Z,53.60
2018-09-29T08:02:24.929Z,52.50
2018-09-29T08:04:53.424Z,50.50
2018-09-29T08:07:21.889Z,50.40
2018-09-29T08:09:50.351Z,50.50
2018-09-29T08:12:18.866Z,50.50
2018-09-29T08:14:47.375Z,50.30
2018-09-29T08:17:15.846Z,48.80
2018-09-29T08:19:44.321Z,49.00
2018-09-29T08:22:12.763Z,49.30
2018-09-29T08:24:41.263Z,49.50
2018-09-29T08:27:09.721Z,49.40
2018-09-29T08:29:38.221Z,48.90
2018-09-29T08:32:06.723Z,48.30
2018-09-29T08:34:35.195Z,48.60
2018-09-29T08:37:03.664Z,47.90
2018-09-29T08:39:32.149Z,48.20
2018-09-29T08:42:00.630Z,48.70
2018-09-29T08:44:29.122Z,48.30
2018-09-29T08:46:57.581Z,48.30
2018-09-29T08:49:26.039Z,48.30
2018-09-29T08:51:54.489Z,47.90
2018-09-29T08:54:22.946Z,47.50
2018-09-29T08:56:51.424Z,47.40
2018-09-29T08:59:19.897Z,47.10
2018-09-29T09:01:48.350Z,46.80
2018-09-29T09:04:16.855Z,46.90
2018-09-29T09:06:45.315Z,45.80
2018-09-29T09:09:13.809Z,46.40
2018-09-29T09:11:42.250Z,46.20
2018-09-29T09:14:10.806Z,46.30
2018-09-29T09:16:39.298Z,45.40
2018-09-29T09:19:07.805Z,45.50
2018-09-29T09:21:36.314Z,45.20
2018-09-29T09:24:04.823Z,45.80
2018-09-29T09:26:33.310Z,45.30
2018-09-29T09:29:01.830Z,44.70
2018-09-29T09:31:30.375Z,44.70
2018-09-29T09:33:58.813Z,44.00
2018-09-29T09:36:27.261Z,44.50
2018-09-29T09:38:55.700Z,44.50
2018-09-29T09:41:24.266Z,44.70
2018-09-29T09:43:52.746Z,44.40
2018-09-29T09:46:21.252Z,44.20
2018-09-29T09:48:49.735Z,44.20
2018-09-29T09:51:18.561Z,43.60
2018-09-29T09:53:47.051Z,44.30
2018-09-29T09:56:15.608Z,43.90
2018-09-29T09:58:44.131Z,43.20
2018-09-29T10:01:17.956Z,43.90
2018-09-29T10:03:46.434Z,42.90
2018-09-29T10:06:14.967Z,43.00
2018-09-29T10:08:43.466Z,43.40
2018-09-29T10:11:11.930Z,42.50
2018-09-29T10:13:40.446Z,42.10
2018-09-29T10:16:09.073Z,42.10
2018-09-29T10:18:37.686Z,42.10
2018-09-29T10:21:06.215Z,41.50
2018-09-29T10:23:35.205Z,41.00
2018-09-29T10:26:03.911Z,40.90
2018-09-29T10:28:32.420Z,41.20
2018-09-29T10:31:00.950Z,41.20
2018-09-29T10:33:29.425Z,41.60
2018-09-29T10:35:57.966Z,41.30
2018-09-29T10:38:26.474Z,41.30
2018-09-29T10:40:55.018Z,41.60
2018-09-29T10:43:23.571Z,41.90
2018-09-29T10:45:52.054Z,42.10
2018-09-29T10:48:20.644Z,41.90
2018-09-29T10:50:49.220Z,42.60
2018-09-29T10:53:17.724Z,43.40
2018-09-29T10:55:46.339Z,44.80
2018-09-29T10:58:14.878Z,44.10
2018-09-29T11:00:43.423Z,43.30
2018-09-29T11:03:13.043Z,43.20
2018-09-29T11:05:41.594Z,43.60
2018-09-29T11:08:10.106Z,44.50
2018-09-29T11:10:38.616Z,46.00
2018-09-29T11:13:07.175Z,45.30
2018-09-29T11:15:35.735Z,46.20
2018-09-29T11:18:04.367Z,45.00
2018-09-29T11:20:33.028Z,46.20
2018-09-29T11:23:01.538Z,45.60
2018-09-29T11:25:30.045Z,46.00
2018-09-29T11:27:58.596Z,46.00
2018-09-29T11:30:27.127Z,46.20
2018-09-29T11:32:55.646Z,46.30
2018-09-29T11:35:24.134Z,45.80
2018-09-29T11:37:52.649Z,46.30
2018-09-29T11:40:21.203Z,46.40
2018-09-29T11:42:49.708Z,46.30
2018-09-29T11:45:18.256Z,46.40
2018-09-29T11:47:46.797Z,46.40
2018-09-29T11:50:15.293Z,46.60
2018-09-29T11:52:43.855Z,45.60
2018-09-29T11:55:12.363Z,44.80
2018-09-29T11:57:40.859Z,45.20
2018-09-29T12:00:09.369Z,45.00
2018-09-29T12:02:37.865Z,43.90
2018-09-29T12:05:06.481Z,44.50
2018-09-29T12:07:35.001Z,44.30
2018-09-29T12:10:03.513Z,43.20
2018-09-29T12:12:32.171Z,43.20
2018-09-29T12:15:00.745Z,43.30
2018-09-29T12:17:29.267Z,43.40
2018-09-29T12:19:57.838Z,42.90
2018-09-29T12:22:26.567Z,42.60
2018-09-29T12:24:54.954Z,42.10
2018-09-29T12:27:24.921Z,42.00
2018-09-29T12:29:52.060Z,43.10
2018-09-29T12:32:20.554Z,43.20
2018-09-29T12:34:49.029Z,42.90
2018-09-29T12:37:17.558Z,40.50
2018-09-29T12:39:46.019Z,40.00
2018-09-29T12:42:14.552Z,40.30
2018-09-29T12:44:43.027Z,39.50
2018-09-29T12:47:11.501Z,40.00
2018-09-29T12:49:39.973Z,40.00
2018-09-29T12:52:08.436Z,39.50
2018-09-29T12:54:36.951Z,39.60
2018-09-29T12:57:05.455Z,39.80
2018-09-29T12:59:33.960Z,40.10
2018-09-29T13:02:02.402Z,40.40
2018-09-29T13:04:30.908Z,40.30
2018-09-29T13:06:59.366Z,39.50
2018-09-29T13:09:27.841Z,40.30
2018-09-29T13:11:56.333Z,39.50
2018-09-29T13:14:24.811Z,39.10
2018-09-29T13:16:53.345Z,38.90
2018-09-29T13:19:21.798Z,38.90
2018-09-29T13:21:50.246Z,39.50
2018-09-29T13:24:18.729Z,40.00
2018-09-29T13:26:47.173Z,38.90
2018-09-29T13:29:15.668Z,38.90
2018-09-29T13:31:44.147Z,39.50
2018-09-29T13:34:12.607Z,38.90
2018-09-29T13:36:41.062Z,38.90
2018-09-29T13:39:09.530Z,38.50
2018-09-29T13:41:37.997Z,37.60
2018-09-29T13:44:06.550Z,38.10
2018-09-29T13:46:34.984Z,37.40
2018-09-29T13:49:03.488Z,37.90
2018-09-29T13:51:32.232Z,37.60
2018-09-29T13:54:00.761Z,37.50
2018-09-29T13:56:29.216Z,38.20
2018-09-29T13:58:57.699Z,37.60
2018-09-29T14:01:26.216Z,38.40
2018-09-29T14:03:54.710Z,38.40
2018-09-29T14:06:23.187Z,36.60
2018-09-29T14:08:51.694Z,36.80
2018-09-29T14:11:20.215Z,36.70
2018-09-29T14:13:48.677Z,36.60
2018-09-29T14:16:17.138Z,36.40
2018-09-29T14:18:45.589Z,36.40
2018-09-29T14:21:14.055Z,36.30
2018-09-29T14:23:42.553Z,36.10
2018-09-29T14:26:11.066Z,36.50
2018-09-29T14:28:39.574Z,36.30
2018-09-29T14:31:08.044Z,36.40
2018-09-29T14:33:36.479Z,35.80
2018-09-29T14:36:04.972Z,35.50
2018-09-29T14:38:33.441Z,36.00
2018-09-29T14:41:01.965Z,36.20
2018-09-29T14:43:31.097Z,36.60
2018-09-29T14:45:59.628Z,36.40
2018-09-29T14:48:28.109Z,36.30
2018-09-29T14:50:56.616Z,36.50
2018-09-29T14:53:25.136Z,36.60
2018-09-29T14:55:53.633Z,36.10
2018-09-29T14:58:22.121Z,36.30
2018-09-29T15:00:50.660Z,36.00
2018-09-29T15:03:19.202Z,35.70
2018-09-29T15:05:47.771Z,35.40
2018-09-29T15:08:16.249Z,35.30
2018-09-29T15:10:44.770Z,35.70
2018-09-29T15:13:13.258Z,35.50
2018-09-29T15:15:41.873Z,35.00
2018-09-29T15:18:10.360Z,35.70
2018-09-29T15:20:38.880Z,36.20
2018-09-29T15:23:07.376Z,36.60
2018-09-29T15:25:35.891Z,36.90
2018-09-29T15:28:04.370Z,36.60
2018-09-29T15:30:32.865Z,36.40
2018-09-29T15:33:01.343Z,35.70
2018-09-29T15:35:29.860Z,34.80
2018-09-29T15:37:58.364Z,35.40
2018-09-29T15:40:26.904Z,35.50
2018-09-29T15:42:55.549Z,35.80
2018-09-29T15:45:23.843Z,35.70
2018-09-29T15:47:52.356Z,35.60
2018-09-29T15:50:20.790Z,36.10
2018-09-29T15:52:49.275Z,36.00
2018-09-29T15:55:17.785Z,35.80
2018-09-29T15:57:46.269Z,36.20
2018-09-29T16:00:14.763Z,36.30
2018-09-29T16:02:43.304Z,36.50
2018-09-29T16:05:11.874Z,36.80
2018-09-29T16:07:40.443Z,37.10
2018-09-29T16:10:08.932Z,37.00
2018-09-29T16:12:37.440Z,37.40
2018-09-29T16:15:06.009Z,36.70
2018-09-29T16:17:34.511Z,37.20
2018-09-29T16:20:03.031Z,37.70
2018-09-29T16:22:31.507Z,37.70
2018-09-29T16:25:00.021Z,37.80
2018-09-29T16:27:28.544Z,38.40
2018-09-29T16:29:57.021Z,38.40
2018-09-29T16:32:25.591Z,38.40
2018-09-29T16:34:54.091Z,38.40
2018-09-29T16:37:22.534Z,38.50
2018-09-29T16:39:50.996Z,38.30
2018-09-29T16:42:19.528Z,38.80
2018-09-29T16:44:47.997Z,39.00
2018-09-29T16:47:16.520Z,38.80
2018-09-29T16:49:45.009Z,39.00
2018-09-29T16:52:13.524Z,39.30
2018-09-29T16:54:42.011Z,39.90
2018-09-29T16:57:10.563Z,39.40
2018-09-29T16:59:39.022Z,39.70
2018-09-29T17:02:07.534Z,40.20
2018-09-29T17:04:36.166Z,40.50
2018-09-29T17:07:04.569Z,40.40
2018-09-29T17:09:33.043Z,40.20
2018-09-29T17:12:01.580Z,40.40
2018-09-29T17:14:30.098Z,40.50
2018-09-29T17:16:58.583Z,41.00
2018-09-29T17:19:27.061Z,40.90
2018-09-29T17:21:55.623Z,41.10
2018-09-29T17:24:24.081Z,42.20
2018-09-29T17:26:52.579Z,41.40
2018-09-29T17:29:21.098Z,41.50
2018-09-29T17:31:49.573Z,41.90
2018-09-29T17:34:18.085Z,43.00
2018-09-29T17:36:46.529Z,42.50
2018-09-29T17:39:15.047Z,42.60
2018-09-29T17:41:43.645Z,42.50
2018-09-29T17:44:12.141Z,42.60
2018-09-29T17:46:40.625Z,42.80
2018-09-29T17:49:09.140Z,43.00
2018-09-29T17:51:37.614Z,42.80
2018-09-29T17:54:06.129Z,43.10
2018-09-29T17:56:34.607Z,43.90
2018-09-29T17:59:03.245Z,43.00
2018-09-29T18:01:31.856Z,43.40
2018-09-29T18:04:00.384Z,44.30
2018-09-29T18:06:28.900Z,44.70
2018-09-29T18:08:58.833Z,44.80
2018-09-29T18:11:27.316Z,44.80
2018-09-29T18:13:55.814Z,44.60
2018-09-29T18:16:24.317Z,45.50
2018-09-29T18:18:52.820Z,44.60
2018-09-29T18:21:21.337Z,44.80
2018-09-29T18:23:49.954Z,44.50
2018-09-29T18:26:18.484Z,44.50
2018-09-29T18:28:46.955Z,44.60
2018-09-29T18:31:15.487Z,44.40
2018-09-29T18:33:43.984Z,44.50
2018-09-29T18:36:13.239Z,44.30
2018-09-29T18:38:42.382Z,44.30
2018-09-29T18:41:10.901Z,44.30
2018-09-29T18:43:39.394Z,44.30
2018-09-29T18:46:07.864Z,44.20
2018-09-29T18:48:36.415Z,44.20
2018-09-29T18:51:04.885Z,44.20
2018-09-29T18:53:33.369Z,44.80
2018-09-29T18:56:01.862Z,44.80
2018-09-29T18:58:30.341Z,45.40
2018-09-29T19:00:58.875Z,45.20
2018-09-29T19:03:27.375Z,45.40
2018-09-29T19:05:55.934Z,44.80
2018-09-29T19:08:24.403Z,44.60
2018-09-29T19:10:52.930Z,44.50
2018-09-29T19:13:21.400Z,44.70
2018-09-29T19:15:50.069Z,45.50
2018-09-29T19:18:18.694Z,47.10
2018-09-29T19:20:47.754Z,47.10
2018-09-29T19:23:17.209Z,48.30
2018-09-29T19:25:45.886Z,48.50
2018-09-29T19:28:14.369Z,48.90
2018-09-29T19:30:42.925Z,49.10
2018-09-29T19:33:11.640Z,48.60
2018-09-29T19:35:40.117Z,49.00
2018-09-29T19:38:08.589Z,49.10
2018-09-29T19:40:37.045Z,49.40
2018-09-29T19:43:05.568Z,50.20
2018-09-29T19:45:34.070Z,50.00
2018-09-29T19:48:02.586Z,49.90
2018-09-29T19:50:31.075Z,49.40
2018-09-29T19:52:59.532Z,48.60
2018-09-29T19:55:28.013Z,48.00
2018-09-29T19:57:56.468Z,48.80
2018-09-29T20:00:24.949Z,49.70
2018-09-29T20:02:53.438Z,49.10
2018-09-29T20:05:21.893Z,48.50
2018-09-29T20:07:50.356Z,47.90
2018-09-29T20:10:18.868Z,47.50
2018-09-29T20:12:47.349Z,47.70
2018-09-29T20:15:15.830Z,48.10
2018-09-29T20:17:44.329Z,47.10
2018-09-29T20:20:12.809Z,47.10
2018-09-29T20:22:41.272Z,47.30
2018-09-29T20:25:09.780Z,47.40
2018-09-29T20:27:38.264Z,47.50
2018-09-29T20:30:06.805Z,47.60
2018-09-29T20:32:35.329Z,48.00
2018-09-29T20:35:03.813Z,48.10
2018-09-29T20:37:32.255Z,48.50
2018-09-29T20:40:00.731Z,49.00
2018-09-29T20:42:29.247Z,48.40
2018-09-29T20:44:57.712Z,48.70
2018-09-29T20:47:26.342Z,48.70
2018-09-29T20:49:54.844Z,49.50
2018-09-29T20:52:23.362Z,50.40
2018-09-29T20:54:51.844Z,50.30
2018-09-29T20:57:20.659Z,49.60
2018-09-29T20:59:49.151Z,49.60
2018-09-29T21:02:17.639Z,49.90
2018-09-29T21:04:46.342Z,50.40
2018-09-29T21:07:15.088Z,51.00
2018-09-29T21:09:43.852Z,51.00
2018-09-29T21:12:12.415Z,52.40
2018-09-29T21:14:41.099Z,52.50
2018-09-29T21:17:10.520Z,52.90
2018-09-29T21:19:39.373Z,53.00
2018-09-29T21:22:08.316Z,53.10
2018-09-29T21:24:36.786Z,54.40
2018-09-29T21:27:05.547Z,54.90
2018-09-29T21:29:34.029Z,55.20
2018-09-29T21:32:02.710Z,55.20
2018-09-29T21:34:31.598Z,55.40
2018-09-29T21:37:00.272Z,55.80
2018-09-29T21:39:28.739Z,55.80
2018-09-29T21:41:57.254Z,55.90
2018-09-29T21:44:25.688Z,57.00
2018-09-29T21:46:54.161Z,57.60
2018-09-29T21:49:23.045Z,57.40
2018-09-29T21:51:51.530Z,58.20
2018-09-29T21:54:19.961Z,57.80
2018-09-29T21:56:48.508Z,58.20
2018-09-29T21:59:16.987Z,58.20
2018-09-29T22:01:45.469Z,58.00
2018-09-29T22:04:13.990Z,58.70
2018-09-29T22:06:42.446Z,58.10
2018-09-29T22:09:10.926Z,58.00
2018-09-29T22:11:39.432Z,58.00
2018-09-29T22:14:07.883Z,58.50
2018-09-29T22:16:36.324Z,57.90
2018-09-29T22:19:04.822Z,58.00
2018-09-29T22:21:33.286Z,57.90
2018-09-29T22:24:01.747Z,57.90
2018-09-29T22:26:30.245Z,57.90
2018-09-29T22:28:58.692Z,58.00
2018-09-29T22:31:27.182Z,57.90
2018-09-29T22:33:55.630Z,57.90
2018-09-29T22:36:24.092Z,58.40
2018-09-29T22:38:52.559Z,59.20
2018-09-29T22:41:21.042Z,59.20
2018-09-29T22:43:49.512Z,59.30
2018-09-29T22:46:17.946Z,59.40
2018-09-29T22:48:46.403Z,59.00
2018-09-29T22:51:14.884Z,59.60
2018-09-29T22:53:43.384Z,59.80
2018-09-29T22:56:11.818Z,60.50
2018-09-29T22:58:40.280Z,61.30
2018-09-29T23:01:08.743Z,61.20
2018-09-29T23:03:37.181Z,62.30
2018-09-29T23:06:05.675Z,61.90
2018-09-29T23:08:34.178Z,61.90
2018-09-29T23:11:02.653Z,61.70
2018-09-29T23:13:31.171Z,61.60
2018-09-29T23:15:59.646Z,61.40
2018-09-29T23:18:28.111Z,61.60
2018-09-29T23:20:56.573Z,61.50
2018-09-29T23:23:25.064Z,61.70
2018-09-29T23:25:53.512Z,62.10
2018-09-29T23:28:21.968Z,62.20
2018-09-29T23:30:50.456Z,62.70
2018-09-29T23:33:18.929Z,63.10
2018-09-29T23:35:47.367Z,62.80
2018-09-29T23:38:15.878Z,62.90
2018-09-29T23:40:44.331Z,64.10
2018-09-29T23:43:12.870Z,63.70
2018-09-29T23:45:41.297Z,64.30
2018-09-29T23:48:09.732Z,64.50
2018-09-29T23:50:38.184Z,64.60
2018-09-29T23:53:06.643Z,65.00
2018-09-29T23:55:35.102Z,65.10
2018-09-29T23:58:04.409Z,65.00
